createdAt,value
2018-11-11T00:01:10.991Z,15.40
2018-11-11T00:03:14.692Z,15.40
2018-11-11T00:05:18.380Z,15.30
2018-11-11T00:07:22.089Z,15.30
2018-11-11T00:09:25.791Z,15.30
2018-11-11T00:11:29.468Z,15.30
2018-11-11T00:13:32.408Z,15.20
2018-11-11T00:15:35.336Z,15.20
2018-11-11T00:17:38.280Z,15.20
2018-11-11T00:19:41.195Z,15.20
2018-11-11T00:21:44.189Z,15.20
2018-11-11T00:23:47.065Z,15.10
2018-11-11T00:25:49.987Z,15.10
2018-11-11T00:27:52.930Z,15.10
2018-11-11T00:29:55.940Z,15.10
2018-11-11T00:31:59.621Z,15.00
2018-11-11T00:34:04.078Z,15.00
2018-11-11T00:36:06.997Z,15.00
2018-11-11T00:38:09.929Z,15.00
2018-11-11T00:40:13.600Z,15.00
2018-11-11T00:42:16.501Z,15.00
2018-11-11T00:44:19.508Z,15.00
2018-11-11T00:46:22.417Z,14.90
2018-11-11T00:48:25.454Z,14.90
2018-11-11T00:50:29.128Z,15.00
2018-11-11T00:52:33.536Z,14.90
2018-11-11T00:54:36.468Z,15.00
2018-11-11T00:56:39.376Z,15.00
2018-11-11T00:58:42.312Z,15.00
2018-11-11T01:00:45.996Z,15.00
2018-11-11T01:02:48.994Z,15.00
2018-11-11T01:04:52.797Z,15.00
2018-11-11T01:06:56.496Z,15.00
2018-11-11T01:09:00.300Z,15.00
2018-11-11T01:11:03.959Z,15.00
2018-11-11T01:13:06.881Z,15.00
2018-11-11T01:15:10.695Z,15.00
2018-11-11T01:17:15.095Z,15.00
2018-11-11T01:19:18.900Z,15.00
2018-11-11T01:21:22.559Z,15.00
2018-11-11T01:23:25.464Z,15.00
2018-11-11T01:25:28.404Z,15.00
2018-11-11T01:27:31.311Z,15.00
2018-11-11T01:29:34.315Z,14.90
2018-11-11T01:31:37.992Z,14.90
2018-11-11T01:33:40.911Z,14.90
2018-11-11T01:35:44.647Z,14.90
2018-11-11T01:37:47.568Z,14.90
2018-11-11T01:39:50.512Z,14.90
2018-11-11T01:41:53.420Z,14.90
2018-11-11T01:43:56.440Z,14.90
2018-11-11T01:46:00.170Z,14.80
2018-11-11T01:48:03.101Z,14.90
2018-11-11T01:50:07.640Z,14.80
2018-11-11T01:52:11.316Z,14.80
2018-11-11T01:54:14.993Z,14.80
2018-11-11T01:56:17.932Z,14.80
2018-11-11T01:58:20.872Z,14.80
2018-11-11T02:00:25.336Z,14.80
2018-11-11T02:02:28.250Z,14.80
2018-11-11T02:04:31.286Z,14.80
2018-11-11T02:06:34.986Z,14.70
2018-11-11T02:08:37.947Z,14.70
2018-11-11T02:10:40.887Z,14.70
2018-11-11T02:12:43.808Z,14.70
2018-11-11T02:14:46.732Z,14.70
2018-11-11T02:16:49.675Z,14.70
2018-11-11T02:18:52.596Z,14.70
2018-11-11T02:20:55.621Z,14.70
2018-11-11T02:22:58.501Z,14.70
2018-11-11T02:25:01.427Z,14.70
2018-11-11T02:27:05.227Z,14.60
2018-11-11T02:29:08.900Z,14.60
2018-11-11T02:31:12.612Z,14.60
2018-11-11T02:33:16.295Z,14.60
2018-11-11T02:35:19.209Z,14.60
2018-11-11T02:37:22.824Z,14.50
2018-11-11T02:39:26.480Z,14.50
2018-11-11T02:41:30.210Z,14.50
2018-11-11T02:43:38.500Z,14.50
2018-11-11T02:45:42.169Z,14.60
2018-11-11T02:47:45.077Z,14.50
2018-11-11T02:49:48.756Z,14.60
2018-11-11T02:51:51.732Z,14.60
2018-11-11T02:53:54.613Z,14.60
2018-11-11T02:55:57.605Z,14.60
2018-11-11T02:58:01.297Z,14.60
2018-11-11T03:00:04.176Z,14.60
2018-11-11T03:02:07.073Z,14.60
2018-11-11T03:04:11.583Z,14.60
2018-11-11T03:06:14.493Z,14.50
2018-11-11T03:08:18.177Z,14.50
2018-11-11T03:10:21.835Z,14.50
2018-11-11T03:12:25.349Z,14.50
2018-11-11T03:14:28.243Z,14.50
2018-11-11T03:16:31.105Z,14.50
2018-11-11T03:18:34.121Z,14.40
2018-11-11T03:20:37.770Z,14.40
2018-11-11T03:22:40.673Z,14.40
2018-11-11T03:24:43.562Z,14.40
2018-11-11T03:26:46.445Z,14.40
2018-11-11T03:28:49.362Z,14.40
2018-11-11T03:30:52.234Z,14.40
2018-11-11T03:32:56.017Z,14.30
2018-11-11T03:34:59.677Z,14.30
2018-11-11T03:37:02.563Z,14.30
2018-11-11T03:39:05.464Z,14.30
2018-11-11T03:41:08.446Z,14.30
2018-11-11T03:43:11.366Z,14.30
2018-11-11T03:45:14.312Z,14.30
2018-11-11T03:47:18.970Z,14.30
2018-11-11T03:49:22.630Z,14.30
2018-11-11T03:51:25.614Z,14.30
2018-11-11T03:53:28.535Z,14.30
2018-11-11T03:55:32.170Z,14.30
2018-11-11T03:57:35.101Z,14.30
2018-11-11T03:59:38.081Z,14.30
2018-11-11T04:01:41.726Z,14.20
2018-11-11T04:03:44.612Z,14.20
2018-11-11T04:05:47.498Z,14.20
2018-11-11T04:07:50.401Z,14.20
2018-11-11T04:09:53.406Z,14.20
2018-11-11T04:11:57.054Z,14.20
2018-11-11T04:13:59.966Z,14.20
2018-11-11T04:16:02.837Z,14.20
2018-11-11T04:18:05.725Z,14.20
2018-11-11T04:20:08.701Z,14.20
2018-11-11T04:22:11.569Z,14.20
2018-11-11T04:24:14.468Z,14.20
2018-11-11T04:26:17.390Z,14.20
2018-11-11T04:28:21.057Z,14.20
2018-11-11T04:30:24.711Z,14.20
2018-11-11T04:32:27.590Z,14.30
2018-11-11T04:34:30.537Z,14.20
2018-11-11T04:36:33.413Z,14.20
2018-11-11T04:38:37.497Z,14.20
2018-11-11T04:40:40.391Z,14.20
2018-11-11T04:42:44.092Z,14.30
2018-11-11T04:44:46.977Z,14.30
2018-11-11T04:46:50.633Z,14.30
2018-11-11T04:48:54.404Z,14.20
2018-11-11T04:50:57.347Z,14.30
2018-11-11T04:53:01.009Z,14.20
2018-11-11T04:55:03.926Z,14.20
2018-11-11T04:57:06.812Z,14.20
2018-11-11T04:59:09.689Z,14.20
2018-11-11T05:01:12.584Z,14.30
2018-11-11T05:03:16.146Z,14.30
2018-11-11T05:05:19.145Z,14.30
2018-11-11T05:07:23.535Z,14.20
2018-11-11T05:09:26.423Z,14.30
2018-11-11T05:11:29.321Z,14.30
2018-11-11T05:13:32.196Z,14.30
2018-11-11T05:15:35.097Z,14.30
2018-11-11T05:17:38.825Z,14.30
2018-11-11T05:19:42.465Z,14.30
2018-11-11T05:21:45.409Z,14.30
2018-11-11T05:23:48.246Z,14.30
2018-11-11T05:25:51.143Z,14.30
2018-11-11T05:27:55.538Z,14.30
2018-11-11T05:29:58.424Z,14.30
2018-11-11T05:32:01.347Z,14.40
2018-11-11T05:34:05.685Z,14.40
2018-11-11T05:36:08.609Z,14.40
2018-11-11T05:38:11.585Z,14.40
2018-11-11T05:40:14.471Z,14.40
2018-11-11T05:42:17.353Z,14.50
2018-11-11T05:44:20.338Z,14.40
2018-11-11T05:46:23.327Z,14.50
2018-11-11T05:48:26.185Z,14.50
2018-11-11T05:50:29.478Z,14.50
2018-11-11T05:52:32.373Z,14.50
2018-11-11T05:54:35.248Z,14.50
2018-11-11T05:56:38.145Z,14.50
2018-11-11T05:58:42.116Z,14.60
2018-11-11T06:00:44.994Z,14.50
2018-11-11T06:02:47.909Z,14.60
2018-11-11T06:04:51.603Z,14.60
2018-11-11T06:06:54.492Z,14.60
2018-11-11T06:08:58.146Z,14.60
2018-11-11T06:11:01.445Z,14.50
2018-11-11T06:13:04.352Z,14.60
2018-11-11T06:15:07.289Z,14.60
2018-11-11T06:17:10.196Z,14.60
2018-11-11T06:19:13.072Z,14.60
2018-11-11T06:21:16.120Z,14.60
2018-11-11T06:23:19.020Z,14.50
2018-11-11T06:25:21.906Z,14.50
2018-11-11T06:27:24.800Z,14.50
2018-11-11T06:29:28.714Z,14.50
2018-11-11T06:31:31.590Z,14.50
2018-11-11T06:33:34.505Z,14.50
2018-11-11T06:35:38.226Z,14.40
2018-11-11T06:37:42.406Z,14.40
2018-11-11T06:39:45.282Z,14.40
2018-11-11T06:41:48.176Z,14.40
2018-11-11T06:43:51.862Z,14.40
2018-11-11T06:45:54.748Z,14.30
2018-11-11T06:47:59.217Z,14.30
2018-11-11T06:50:02.028Z,14.30
2018-11-11T06:52:04.910Z,14.30
2018-11-11T06:54:07.813Z,14.30
2018-11-11T06:56:11.498Z,14.20
2018-11-11T06:58:14.561Z,14.20
2018-11-11T07:00:17.357Z,14.20
2018-11-11T07:02:20.237Z,14.20
2018-11-11T07:04:23.425Z,14.20
2018-11-11T07:06:26.311Z,14.10
2018-11-11T07:08:29.789Z,14.10
2018-11-11T07:10:32.689Z,14.10
2018-11-11T07:12:35.569Z,14.10
2018-11-11T07:14:38.488Z,14.10
2018-11-11T07:16:42.125Z,14.00
2018-11-11T07:18:45.020Z,14.10
2018-11-11T07:20:47.905Z,14.10
2018-11-11T07:22:50.812Z,14.10
2018-11-11T07:24:54.491Z,14.00
2018-11-11T07:26:57.365Z,14.00
2018-11-11T07:29:00.345Z,14.00
2018-11-11T07:31:03.375Z,14.00
2018-11-11T07:33:07.041Z,14.00
2018-11-11T07:35:09.928Z,14.00
2018-11-11T07:37:13.526Z,13.90
2018-11-11T07:39:16.493Z,13.90
2018-11-11T07:41:19.381Z,13.90
2018-11-11T07:43:22.269Z,13.90
2018-11-11T07:45:25.242Z,13.90
2018-11-11T07:47:28.641Z,13.90
2018-11-11T07:49:31.524Z,13.80
2018-11-11T07:51:35.209Z,13.80
2018-11-11T07:53:38.187Z,13.80
2018-11-11T07:55:41.093Z,13.90
2018-11-11T07:57:43.970Z,13.80
2018-11-11T07:59:46.856Z,13.80
2018-11-11T08:01:50.610Z,13.90
2018-11-11T08:03:53.430Z,13.80
2018-11-11T08:05:56.410Z,13.80
2018-11-11T08:08:00.065Z,13.80
2018-11-11T08:10:03.403Z,13.80
2018-11-11T08:12:06.312Z,13.80
2018-11-11T08:14:09.982Z,13.90
2018-11-11T08:16:12.872Z,13.90
2018-11-11T08:18:16.980Z,13.90
2018-11-11T08:20:21.378Z,13.90
2018-11-11T08:22:24.265Z,13.90
2018-11-11T08:24:27.150Z,14.00
2018-11-11T08:26:30.038Z,13.90
2018-11-11T08:28:34.089Z,14.00
2018-11-11T08:30:37.729Z,14.00
2018-11-11T08:32:40.607Z,14.00
2018-11-11T08:34:43.493Z,14.10
2018-11-11T08:36:46.477Z,14.10
2018-11-11T08:38:49.857Z,14.10
2018-11-11T08:40:54.285Z,14.20
2018-11-11T08:42:57.166Z,14.20
2018-11-11T08:45:00.053Z,14.20
2018-11-11T08:47:02.949Z,14.20
2018-11-11T08:49:07.009Z,14.20
2018-11-11T08:51:09.914Z,14.20
2018-11-11T08:53:12.921Z,14.20
2018-11-11T08:55:16.569Z,14.30
2018-11-11T08:57:19.493Z,14.20
2018-11-11T08:59:23.529Z,14.30
2018-11-11T09:01:27.202Z,14.30
2018-11-11T09:03:31.744Z,14.30
2018-11-11T09:05:35.375Z,14.30
2018-11-11T09:07:38.282Z,14.30
2018-11-11T09:09:41.167Z,14.30
2018-11-11T09:11:44.066Z,14.30
2018-11-11T09:13:47.753Z,14.40
2018-11-11T09:15:50.771Z,14.30
2018-11-11T09:17:53.717Z,14.30
2018-11-11T09:19:56.578Z,14.40
2018-11-11T09:21:59.512Z,14.40
2018-11-11T09:24:03.157Z,14.40
2018-11-11T09:26:06.053Z,14.40
2018-11-11T09:28:09.462Z,14.40
2018-11-11T09:30:13.910Z,14.50
2018-11-11T09:32:16.745Z,14.50
2018-11-11T09:34:19.625Z,14.50
2018-11-11T09:36:22.497Z,14.50
2018-11-11T09:38:25.528Z,14.50
2018-11-11T09:40:29.156Z,14.50
2018-11-11T09:42:32.801Z,14.50
2018-11-11T09:44:35.774Z,14.60
2018-11-11T09:46:40.053Z,14.70
2018-11-11T09:48:42.966Z,14.70
2018-11-11T09:50:45.840Z,14.80
2018-11-11T09:52:48.809Z,14.90
2018-11-11T09:54:52.393Z,15.00
2018-11-11T09:56:55.256Z,15.00
2018-11-11T09:58:58.156Z,15.10
2018-11-11T10:01:01.850Z,15.20
2018-11-11T10:03:04.770Z,15.20
2018-11-11T10:05:07.629Z,15.30
2018-11-11T10:07:10.588Z,15.30
2018-11-11T10:09:13.425Z,15.40
2018-11-11T10:11:17.121Z,15.50
2018-11-11T10:13:20.021Z,15.50
2018-11-11T10:15:22.910Z,15.50
2018-11-11T10:17:26.552Z,15.60
2018-11-11T10:19:29.450Z,15.60
2018-11-11T10:21:32.326Z,15.60
2018-11-11T10:23:36.729Z,15.60
2018-11-11T10:25:39.636Z,15.60
2018-11-11T10:27:43.287Z,15.60
2018-11-11T10:29:46.269Z,15.60
2018-11-11T10:31:49.160Z,15.60
2018-11-11T10:33:52.446Z,15.60
2018-11-11T10:35:55.341Z,15.60
2018-11-11T10:37:58.230Z,15.60
2018-11-11T10:40:01.142Z,15.60
2018-11-11T10:42:04.792Z,15.60
2018-11-11T10:44:07.739Z,15.70
2018-11-11T10:46:10.659Z,15.70
2018-11-11T10:48:13.541Z,15.70
2018-11-11T10:50:16.411Z,15.70
2018-11-11T10:52:19.637Z,15.70
2018-11-11T10:54:22.538Z,15.80
2018-11-11T10:56:25.539Z,15.80
2018-11-11T10:58:29.240Z,15.80
2018-11-11T11:00:33.017Z,15.80
2018-11-11T11:02:36.433Z,15.70
2018-11-11T11:04:40.063Z,15.80
2018-11-11T11:06:43.809Z,15.80
2018-11-11T11:08:47.474Z,15.80
2018-11-11T11:10:50.519Z,15.80
2018-11-11T11:12:54.281Z,15.90
2018-11-11T11:14:57.162Z,15.90
2018-11-11T11:17:00.144Z,15.90
2018-11-11T11:19:03.028Z,15.90
2018-11-11T11:21:05.905Z,16.00
2018-11-11T11:23:10.442Z,16.00
2018-11-11T11:25:13.321Z,16.00
2018-11-11T11:27:17.026Z,16.10
2018-11-11T11:29:21.421Z,16.10
2018-11-11T11:31:24.360Z,16.10
2018-11-11T11:33:27.496Z,16.10
2018-11-11T11:35:30.498Z,16.20
2018-11-11T11:37:35.034Z,16.30
2018-11-11T11:39:38.698Z,16.40
2018-11-11T11:41:41.574Z,16.40
2018-11-11T11:43:44.461Z,16.40
2018-11-11T11:45:47.352Z,16.50
2018-11-11T11:47:51.073Z,16.50
2018-11-11T11:49:53.977Z,16.50
2018-11-11T11:51:56.978Z,16.60
2018-11-11T11:54:00.696Z,16.70
2018-11-11T11:56:03.590Z,16.70
2018-11-11T11:58:06.610Z,16.70
2018-11-11T12:00:09.976Z,16.80
2018-11-11T12:02:14.138Z,16.80
2018-11-11T12:04:17.756Z,16.90
2018-11-11T12:06:20.633Z,16.90
2018-11-11T12:08:23.668Z,16.90
2018-11-11T12:10:27.298Z,17.00
2018-11-11T12:12:30.174Z,17.00
2018-11-11T12:14:33.068Z,17.10
2018-11-11T12:16:35.956Z,17.20
2018-11-11T12:18:38.830Z,17.30
2018-11-11T12:20:41.728Z,17.40
2018-11-11T12:22:44.608Z,17.50
2018-11-11T12:24:47.537Z,17.50
2018-11-11T12:26:51.600Z,17.60
2018-11-11T12:28:54.473Z,17.60
2018-11-11T12:30:57.376Z,17.70
2018-11-11T12:33:00.244Z,17.70
2018-11-11T12:35:03.204Z,17.80
2018-11-11T12:37:07.630Z,17.80
2018-11-11T12:39:10.601Z,17.80
2018-11-11T12:41:13.407Z,17.80
2018-11-11T12:45:21.401Z,17.80
2018-11-11T12:47:24.276Z,17.80
2018-11-11T12:49:27.257Z,17.80
2018-11-11T12:51:30.145Z,17.90
2018-11-11T12:53:33.022Z,17.90
2018-11-11T12:55:36.730Z,18.00
2018-11-11T12:57:39.596Z,18.00
2018-11-11T12:59:42.980Z,18.00
2018-11-11T13:01:45.876Z,18.00
2018-11-11T13:03:49.126Z,18.10
2018-11-11T13:05:52.795Z,18.20
2018-11-11T13:07:55.702Z,18.10
2018-11-11T13:10:00.677Z,18.20
2018-11-11T13:12:03.642Z,18.20
2018-11-11T13:14:06.445Z,18.20
2018-11-11T13:16:09.337Z,18.20
2018-11-11T13:18:13.729Z,18.20
2018-11-11T13:20:16.658Z,18.20
2018-11-11T13:22:20.453Z,18.20
2018-11-11T13:24:23.230Z,18.20
2018-11-11T13:26:28.129Z,18.20
2018-11-11T13:28:31.020Z,18.20
2018-11-11T13:30:33.898Z,18.20
2018-11-11T13:34:45.169Z,18.20
2018-11-11T13:36:48.122Z,18.20
2018-11-11T13:38:51.869Z,18.20
2018-11-11T13:40:54.833Z,18.20
2018-11-11T13:42:58.460Z,18.20
2018-11-11T13:45:01.441Z,18.20
2018-11-11T13:47:06.270Z,18.30
2018-11-11T13:49:09.157Z,18.30
2018-11-11T13:51:12.033Z,18.30
2018-11-11T13:53:15.017Z,18.30
2018-11-11T13:55:19.417Z,18.40
2018-11-11T13:57:22.941Z,18.40
2018-11-11T13:59:26.112Z,18.50
2018-11-11T14:01:29.037Z,18.50
2018-11-11T14:03:31.887Z,18.50
2018-11-11T14:05:34.768Z,18.50
2018-11-11T14:07:37.662Z,18.50
2018-11-11T14:09:42.197Z,18.50
2018-11-11T14:11:45.864Z,18.50
2018-11-11T14:13:50.265Z,18.50
2018-11-11T14:15:53.189Z,18.50
2018-11-11T14:17:56.064Z,18.50
2018-11-11T14:20:00.458Z,18.40
2018-11-11T14:22:03.475Z,18.40
2018-11-11T14:24:07.145Z,18.40
2018-11-11T14:26:11.299Z,18.40
2018-11-11T14:28:15.079Z,18.40
2018-11-11T14:30:18.759Z,18.30
2018-11-11T14:32:22.499Z,18.30
2018-11-11T14:34:25.592Z,18.30
2018-11-11T14:36:28.513Z,18.30
2018-11-11T14:38:32.971Z,18.40
2018-11-11T14:40:35.921Z,18.40
2018-11-11T14:42:39.421Z,18.40
2018-11-11T14:44:42.302Z,18.40
2018-11-11T14:46:46.730Z,18.40
2018-11-11T14:48:50.397Z,18.40
2018-11-11T14:50:53.290Z,18.40
2018-11-11T14:52:56.211Z,18.40
2018-11-11T14:54:59.907Z,18.40
2018-11-11T14:57:03.572Z,18.40
2018-11-11T14:59:06.464Z,18.30
2018-11-11T15:01:10.571Z,18.30
2018-11-11T15:03:14.686Z,18.30
2018-11-11T15:05:18.357Z,18.30
2018-11-11T15:07:21.265Z,18.30
2018-11-11T15:09:25.481Z,18.30
2018-11-11T15:11:28.418Z,18.30
2018-11-11T15:13:31.837Z,18.30
2018-11-11T15:15:36.225Z,18.20
2018-11-11T15:17:39.121Z,18.30
2018-11-11T15:19:43.683Z,18.20
2018-11-11T15:21:47.227Z,18.20
2018-11-11T15:23:50.240Z,18.20
2018-11-11T15:25:53.888Z,18.20
2018-11-11T15:27:56.811Z,18.10
2018-11-11T15:29:59.693Z,18.10
2018-11-11T15:32:02.584Z,18.10
2018-11-11T15:34:07.017Z,18.00
2018-11-11T15:36:11.552Z,18.00
2018-11-11T15:38:15.182Z,18.00
2018-11-11T15:40:18.095Z,18.00
2018-11-11T15:42:21.113Z,17.90
2018-11-11T15:44:24.764Z,17.90
2018-11-11T15:46:27.665Z,17.90
2018-11-11T15:48:31.430Z,17.80
2018-11-11T15:50:34.245Z,17.80
2018-11-11T15:52:37.229Z,17.80
2018-11-11T15:54:40.939Z,17.80
2018-11-11T15:56:44.584Z,17.70
2018-11-11T15:58:47.458Z,17.70
2018-11-11T16:00:50.374Z,17.70
2018-11-11T16:02:54.777Z,17.60
2018-11-11T16:04:57.764Z,17.70
2018-11-11T16:07:02.165Z,17.60
2018-11-11T16:09:05.066Z,17.60
2018-11-11T16:11:07.977Z,17.60
2018-11-11T16:13:11.617Z,17.50
2018-11-11T16:15:14.636Z,17.60
2018-11-11T16:17:17.494Z,17.50
2018-11-11T16:19:20.946Z,17.50
2018-11-11T16:21:24.597Z,17.50
2018-11-11T16:23:27.549Z,17.50
2018-11-11T16:25:31.380Z,17.60
2018-11-11T16:27:34.176Z,17.50
2018-11-11T16:29:37.103Z,17.50
2018-11-11T16:31:39.951Z,17.50
2018-11-11T16:33:43.088Z,17.50
2018-11-11T16:35:46.746Z,17.50
2018-11-11T16:37:49.617Z,17.50
2018-11-11T16:39:52.538Z,17.50
2018-11-11T16:41:55.501Z,17.50
2018-11-11T16:43:58.431Z,17.40
2018-11-11T16:46:02.017Z,17.40
2018-11-11T16:48:05.070Z,17.40
2018-11-11T16:50:09.318Z,17.30
2018-11-11T16:52:12.220Z,17.40
2018-11-11T16:54:15.157Z,17.30
2018-11-11T16:56:17.972Z,17.40
2018-11-11T16:58:20.985Z,17.30
2018-11-11T17:00:24.641Z,17.30
2018-11-11T17:02:27.954Z,17.20
2018-11-11T17:04:30.950Z,17.20
2018-11-11T17:06:33.725Z,17.20
2018-11-11T17:08:36.643Z,17.20
2018-11-11T17:10:40.318Z,17.10
2018-11-11T17:12:44.437Z,17.10
2018-11-11T17:14:48.065Z,17.10
2018-11-11T17:16:50.957Z,17.00
2018-11-11T17:18:53.841Z,17.00
2018-11-11T17:20:56.743Z,17.00
2018-11-11T17:22:59.666Z,16.90
2018-11-11T17:25:02.488Z,16.90
2018-11-11T17:27:05.412Z,16.90
2018-11-11T17:29:08.287Z,16.90
2018-11-11T17:31:11.950Z,16.80
2018-11-11T17:33:14.849Z,16.80
2018-11-11T17:35:17.732Z,16.80
2018-11-11T17:37:20.619Z,16.80
2018-11-11T17:39:23.517Z,16.70
2018-11-11T17:41:27.166Z,16.80
2018-11-11T17:43:30.077Z,16.70
2018-11-11T17:45:32.961Z,16.70
2018-11-11T17:47:35.842Z,16.70
2018-11-11T17:49:38.737Z,16.70
2018-11-11T17:51:42.381Z,16.60
2018-11-11T17:53:45.283Z,16.60
2018-11-11T17:55:48.195Z,16.60
2018-11-11T17:57:51.078Z,16.70
2018-11-11T17:59:54.769Z,16.60
2018-11-11T18:01:57.627Z,16.60
2018-11-11T18:04:00.521Z,16.60
2018-11-11T18:06:03.392Z,16.50
2018-11-11T18:08:06.326Z,16.50
2018-11-11T18:10:09.157Z,16.50
2018-11-11T18:12:12.187Z,16.50
2018-11-11T18:14:15.135Z,16.50
2018-11-11T18:16:18.702Z,16.50
2018-11-11T18:18:21.582Z,16.50
2018-11-11T18:20:24.480Z,16.50
2018-11-11T18:22:27.657Z,16.50
2018-11-11T18:24:30.552Z,16.50
2018-11-11T18:26:33.441Z,16.50
2018-11-11T18:28:36.319Z,16.50
2018-11-11T18:30:39.215Z,16.50
2018-11-11T18:32:43.617Z,16.50
2018-11-11T18:34:46.522Z,16.50
2018-11-11T18:36:50.279Z,16.50
2018-11-11T18:38:53.161Z,16.50
2018-11-11T18:40:56.166Z,16.50
2018-11-11T18:42:59.766Z,16.50
2018-11-11T18:45:02.769Z,16.50
2018-11-11T18:47:06.418Z,16.50
2018-11-11T18:49:09.612Z,16.50
2018-11-11T18:51:12.631Z,16.50
2018-11-11T18:53:15.488Z,16.50
2018-11-11T18:55:18.400Z,16.50
2018-11-11T18:57:21.516Z,16.50
2018-11-11T18:59:24.224Z,16.50
2018-11-11T19:01:27.135Z,16.60
2018-11-11T19:03:29.972Z,16.60
2018-11-11T19:05:32.865Z,16.50
2018-11-11T19:07:35.806Z,16.60
2018-11-11T19:09:38.672Z,16.60
2018-11-11T19:11:43.052Z,16.60
2018-11-11T19:13:45.938Z,16.60
2018-11-11T19:15:48.824Z,16.60
2018-11-11T19:17:51.701Z,16.60
2018-11-11T19:19:54.576Z,16.60
2018-11-11T19:21:57.475Z,16.60
2018-11-11T19:24:00.357Z,16.60
2018-11-11T19:26:03.685Z,16.60
2018-11-11T19:28:07.353Z,16.60
2018-11-11T19:30:10.237Z,16.60
2018-11-11T19:32:13.134Z,16.60
2018-11-11T19:34:16.795Z,16.60
2018-11-11T19:36:19.689Z,16.60
2018-11-11T19:38:22.623Z,16.60
2018-11-11T19:40:25.500Z,16.60
2018-11-11T19:42:28.392Z,16.60
2018-11-11T19:44:31.275Z,16.60
2018-11-11T19:46:34.273Z,16.70
2018-11-11T19:48:37.148Z,16.60
2018-11-11T19:50:40.744Z,16.70
2018-11-11T19:52:44.053Z,16.70
2018-11-11T19:54:47.115Z,16.80
2018-11-11T19:56:50.070Z,16.70
2018-11-11T19:58:52.917Z,16.70
2018-11-11T20:00:56.573Z,16.70
2018-11-11T20:02:59.462Z,16.70
2018-11-11T20:05:02.360Z,16.80
2018-11-11T20:07:05.245Z,16.80
2018-11-11T20:09:08.189Z,16.80
2018-11-11T20:11:11.131Z,16.80
2018-11-11T20:13:13.956Z,16.90
2018-11-11T20:15:16.943Z,16.80
2018-11-11T20:17:19.874Z,16.80
2018-11-11T20:19:22.697Z,16.90
2018-11-11T20:21:25.731Z,16.90
2018-11-11T20:23:29.497Z,16.90
2018-11-11T20:25:32.383Z,16.90
2018-11-11T20:27:35.293Z,16.90
2018-11-11T20:29:38.938Z,17.00
2018-11-11T20:31:41.929Z,16.90
2018-11-11T20:33:44.843Z,16.90
2018-11-11T20:35:47.831Z,16.90
2018-11-11T20:37:50.696Z,16.90
2018-11-11T20:39:53.583Z,17.00
2018-11-11T20:41:56.463Z,17.00
2018-11-11T20:43:59.329Z,17.00
2018-11-11T20:46:02.332Z,17.00
2018-11-11T20:48:05.903Z,17.00
2018-11-11T20:50:08.818Z,17.00
2018-11-11T20:52:11.897Z,17.00
2018-11-11T20:54:14.775Z,17.10
2018-11-11T20:56:17.829Z,17.10
2018-11-11T20:58:20.648Z,17.10
2018-11-11T21:00:23.518Z,17.10
2018-11-11T21:02:26.393Z,17.10
2018-11-11T21:04:29.289Z,17.10
2018-11-11T21:06:32.282Z,17.20
2018-11-11T21:08:35.162Z,17.10
2018-11-11T21:10:38.107Z,17.20
2018-11-11T21:12:41.730Z,17.10
2018-11-11T21:14:44.615Z,17.20
2018-11-11T21:16:48.261Z,17.10
2018-11-11T21:18:52.011Z,17.20
2018-11-11T21:20:54.881Z,17.10
2018-11-11T21:22:57.761Z,17.20
2018-11-11T21:25:00.665Z,17.10
2018-11-11T21:27:04.381Z,17.10
2018-11-11T21:29:08.566Z,17.00
2018-11-11T21:31:11.459Z,17.00
2018-11-11T21:33:14.424Z,17.00
2018-11-11T21:35:17.323Z,17.00
2018-11-11T21:37:20.962Z,17.00
2018-11-11T21:39:23.877Z,16.90
2018-11-11T21:41:26.768Z,16.90
2018-11-11T21:43:29.617Z,16.90
2018-11-11T21:45:32.564Z,16.90
2018-11-11T21:47:36.221Z,16.90
2018-11-11T21:49:39.109Z,16.90
2018-11-11T21:51:42.100Z,16.90
2018-11-11T21:53:44.977Z,16.80
2018-11-11T21:55:48.044Z,16.80
2018-11-11T21:57:50.917Z,16.80
2018-11-11T21:59:54.046Z,16.80
2018-11-11T22:01:57.711Z,16.80
2018-11-11T22:04:00.738Z,16.80
2018-11-11T22:06:04.436Z,16.80
2018-11-11T22:08:08.119Z,16.70
2018-11-11T22:10:11.036Z,16.80
2018-11-11T22:12:13.956Z,16.70
2018-11-11T22:14:16.873Z,16.70
2018-11-11T22:16:21.007Z,16.80
2018-11-11T22:18:23.928Z,16.70
2018-11-11T22:20:26.867Z,16.70
2018-11-11T22:22:30.579Z,16.70
2018-11-11T22:24:34.209Z,16.70
2018-11-11T22:26:37.148Z,16.70
2018-11-11T22:28:40.802Z,16.70
2018-11-11T22:30:43.834Z,16.70
2018-11-11T22:32:47.502Z,16.70
2018-11-11T22:34:50.419Z,16.70
2018-11-11T22:36:53.368Z,16.70
2018-11-11T22:38:56.291Z,16.60
2018-11-11T22:40:59.315Z,16.60
2018-11-11T22:43:02.211Z,16.60
2018-11-11T22:45:05.900Z,16.60
2018-11-11T22:47:08.843Z,16.60
2018-11-11T22:49:11.746Z,16.60
2018-11-11T22:51:14.710Z,16.60
2018-11-11T22:53:17.641Z,16.60
2018-11-11T22:55:20.590Z,16.50
2018-11-11T22:57:23.482Z,16.50
2018-11-11T22:59:26.357Z,16.50
2018-11-11T23:01:30.024Z,16.50
2018-11-11T23:03:32.929Z,16.50
2018-11-11T23:05:35.830Z,16.50
2018-11-11T23:07:38.746Z,16.50
2018-11-11T23:09:42.370Z,16.40
2018-11-11T23:11:45.272Z,16.40
2018-11-11T23:13:48.151Z,16.40
2018-11-11T23:15:51.087Z,16.40
2018-11-11T23:17:53.930Z,16.40
2018-11-11T23:19:56.789Z,16.30
2018-11-11T23:21:59.770Z,16.30
2018-11-11T23:24:02.667Z,16.20
2018-11-11T23:26:06.309Z,16.20
2018-11-11T23:28:09.228Z,16.20
2018-11-11T23:30:12.109Z,16.10
2018-11-11T23:32:15.022Z,16.10
2018-11-11T23:34:17.908Z,16.10
2018-11-11T23:36:20.786Z,16.10
2018-11-11T23:38:23.799Z,16.00
2018-11-11T23:40:27.422Z,16.00
2018-11-11T23:42:31.149Z,16.00
2018-11-11T23:44:34.034Z,15.90
2018-11-11T23:46:36.913Z,15.90
2018-11-11T23:48:40.096Z,15.90
2018-11-11T23:50:42.970Z,15.90
2018-11-11T23:52:45.847Z,15.90
2018-11-11T23:54:48.734Z,15.80
2018-11-11T23:56:52.385Z,15.80
2018-11-11T23:58:56.045Z,15.70
